Pleasant Ridge, Michigan
Current Conditions -  °F | °C
As of 5:18 PM on Sunday 23 Nov 2014 (Local Time) from KVLL Reporting Station
Overcast Overcast  
Wind Chill: 54°   Ceiling: 3600
Heat Index: 54°   Visibility: 10mi
Dew Point: 45°   Wind: 5mph
Humidity: 72%   Direction: 110°ESE
Pressure: 29.67"   Gusts: NA
Location:  42.47°N, 83.14°W
Report Text: KVLL 232218Z AUTO 11004KT 10SM SCT025 BKN036 OVC055 12/07 A2967 RMK AO2
Loading
Personal Weather Stations






























Interactive Weather Map New forecast layout! Learn more

10-Day Weather Forecast

Advertisements
Track Severe Weather on mobile